createdAt,value
2019-03-08T00:00:02.113Z,1
2019-03-08T00:05:01.764Z,1
2019-03-08T00:10:01.570Z,2
2019-03-08T00:15:01.922Z,0
2019-03-08T00:20:01.430Z,1
2019-03-08T00:25:01.958Z,0
2019-03-08T00:30:01.359Z,1
2019-03-08T00:35:01.772Z,2
2019-03-08T00:40:01.619Z,1
2019-03-08T00:45:02.011Z,1
2019-03-08T00:50:01.391Z,2
2019-03-08T00:55:01.763Z,2
2019-03-08T01:00:02.139Z,2
2019-03-08T01:05:01.975Z,3
2019-03-08T01:10:01.780Z,0
2019-03-08T01:15:02.243Z,2
2019-03-08T01:20:01.654Z,2
2019-03-08T01:25:02.040Z,2
2019-03-08T01:30:01.439Z,2
2019-03-08T01:35:01.799Z,2
2019-03-08T01:40:01.597Z,1
2019-03-08T01:45:03.770Z,1
2019-03-08T01:50:02.278Z,4
2019-03-08T01:55:01.608Z,1
2019-03-08T02:00:01.970Z,4
2019-03-08T02:05:01.629Z,3
2019-03-08T02:10:01.434Z,2
2019-03-08T02:15:01.932Z,2
2019-03-08T02:20:01.405Z,3
2019-03-08T02:25:01.805Z,3
2019-03-08T02:30:02.186Z,3
2019-03-08T02:35:01.554Z,1
2019-03-08T02:40:01.354Z,5
2019-03-08T02:45:01.730Z,3
2019-03-08T02:50:02.308Z,3
2019-03-08T02:55:01.679Z,3
2019-03-08T03:00:02.113Z,3
2019-03-08T03:05:01.774Z,2
2019-03-08T03:10:01.569Z,4
2019-03-08T03:15:02.184Z,4
2019-03-08T03:20:01.638Z,3
2019-03-08T03:25:02.017Z,3
2019-03-08T03:30:01.643Z,1
2019-03-08T03:35:02.005Z,2
2019-03-08T03:40:01.867Z,4
2019-03-08T03:45:02.223Z,2
2019-03-08T03:50:01.598Z,4
2019-03-08T03:55:01.955Z,3
2019-03-08T04:00:01.352Z,3
2019-03-08T04:05:02.006Z,3
2019-03-08T04:10:01.994Z,2
2019-03-08T04:15:01.626Z,5
2019-03-08T04:20:02.103Z,2
2019-03-08T04:25:01.471Z,2
2019-03-08T04:30:01.853Z,2
2019-03-08T04:35:02.223Z,2
2019-03-08T04:40:02.292Z,2
2019-03-08T04:45:01.653Z,1
2019-03-08T04:50:02.339Z,3
2019-03-08T04:55:01.705Z,3
2019-03-08T05:00:02.101Z,4
2019-03-08T05:05:01.775Z,3
2019-03-08T05:10:01.638Z,3
2019-03-08T05:15:01.972Z,3
2019-03-08T05:20:01.424Z,3
2019-03-08T05:25:01.819Z,2
2019-03-08T05:30:01.421Z,3
2019-03-08T05:35:01.793Z,2
2019-03-08T05:40:01.621Z,3
2019-03-08T05:45:02.004Z,3
2019-03-08T05:50:01.342Z,2
2019-03-08T05:55:01.696Z,3
2019-03-08T06:00:02.081Z,2
2019-03-08T06:05:01.959Z,2
2019-03-08T06:10:01.756Z,3
2019-03-08T06:15:02.102Z,1
2019-03-08T06:20:01.593Z,3
2019-03-08T06:25:02.246Z,4
2019-03-08T06:30:01.594Z,4
2019-03-08T06:35:02.019Z,4
2019-03-08T06:40:01.893Z,3
2019-03-08T06:45:02.284Z,2
2019-03-08T06:50:01.688Z,1
2019-03-08T06:55:02.038Z,3
2019-03-08T07:00:01.382Z,2
2019-03-08T07:05:02.086Z,1
2019-03-08T07:10:01.922Z,2
2019-03-08T07:15:01.577Z,2
2019-03-08T07:20:02.056Z,2
2019-03-08T07:25:01.399Z,4
2019-03-08T07:30:01.780Z,2
2019-03-08T07:35:01.331Z,2
2019-03-08T07:40:02.180Z,2
2019-03-08T07:45:01.529Z,2
2019-03-08T07:50:01.899Z,3
2019-03-08T07:55:02.263Z,2
2019-03-08T08:00:01.580Z,2
2019-03-08T08:05:02.244Z,2
2019-03-08T08:10:02.056Z,2
2019-03-08T08:15:02.200Z,1
2019-03-08T08:20:01.640Z,1
2019-03-08T08:25:02.021Z,1
2019-03-08T08:30:01.381Z,2
2019-03-08T08:35:01.743Z,2
2019-03-08T08:40:01.863Z,1
2019-03-08T08:45:02.254Z,4
2019-03-08T08:50:01.680Z,2
2019-03-08T08:55:02.078Z,4
2019-03-08T09:00:01.428Z,2
2019-03-08T09:05:02.092Z,1
2019-03-08T09:10:01.882Z,3
2019-03-08T09:15:01.792Z,11
2019-03-08T09:20:01.481Z,5
2019-03-08T09:25:01.841Z,6
2019-03-08T09:30:02.196Z,6
2019-03-08T09:35:01.529Z,7
2019-03-08T09:40:01.358Z,9
2019-03-08T09:45:01.765Z,7
2019-03-08T09:50:02.145Z,5
2019-03-08T09:55:01.507Z,8
2019-03-08T10:00:02.126Z,7
2019-03-08T10:05:01.824Z,7
2019-03-08T10:10:01.632Z,7
2019-03-08T10:15:01.353Z,4
2019-03-08T10:20:01.831Z,2
2019-03-08T10:25:02.204Z,4
2019-03-08T10:30:01.532Z,6
2019-03-08T10:35:01.895Z,5
2019-03-08T10:40:01.980Z,5
2019-03-08T10:45:01.342Z,4
2019-03-08T10:50:01.704Z,6
2019-03-08T10:55:02.086Z,5
2019-03-08T11:00:01.653Z,3
2019-03-08T11:05:02.306Z,5
2019-03-08T11:10:02.101Z,3
2019-03-08T11:15:01.527Z,3
2019-03-08T11:20:01.671Z,3
2019-03-08T11:25:08.048Z,3
2019-03-08T11:30:02.106Z,3
2019-03-08T11:35:01.519Z,2
2019-03-08T11:40:02.342Z,3
2019-03-08T11:45:01.680Z,3
2019-03-08T11:50:02.035Z,1
2019-03-08T11:55:01.458Z,3
2019-03-08T12:00:02.092Z,3
2019-03-08T12:05:02.003Z,2
2019-03-08T12:10:01.792Z,1
2019-03-08T12:15:01.890Z,4
2019-03-08T12:20:01.359Z,2
2019-03-08T12:25:01.773Z,2
2019-03-08T12:30:04.246Z,1
2019-03-08T12:35:01.853Z,3
2019-03-08T12:40:01.674Z,0
2019-03-08T12:45:02.099Z,2
2019-03-08T12:50:01.463Z,2
2019-03-08T12:55:01.827Z,3
2019-03-08T13:00:02.133Z,1
2019-03-08T13:05:02.124Z,3
2019-03-08T13:10:01.940Z,2
2019-03-08T13:15:01.308Z,3
2019-03-08T13:20:01.752Z,2
2019-03-08T13:25:02.109Z,2
2019-03-08T13:30:01.450Z,4
2019-03-08T13:34:15.096Z,3
2019-03-08T13:35:01.837Z,2
2019-03-08T13:36:21.611Z,3
2019-03-08T13:37:46.920Z,3
2019-03-08T13:40:01.607Z,3
2019-03-08T13:45:02.065Z,3
2019-03-08T13:50:01.457Z,5
2019-03-08T13:55:01.852Z,6
2019-03-08T14:00:02.179Z,4
2019-03-08T14:05:01.896Z,4
2019-03-08T14:10:01.670Z,4
2019-03-08T14:15:01.745Z,5
2019-03-08T14:20:02.225Z,5
2019-03-08T14:25:01.810Z,4
2019-03-08T14:30:02.168Z,6
2019-03-08T14:35:01.551Z,6
2019-03-08T14:40:02.301Z,5
2019-03-08T14:45:03.617Z,7
2019-03-08T14:50:01.977Z,5
2019-03-08T14:55:01.373Z,5
2019-03-08T15:00:01.696Z,11
2019-03-08T15:05:10.706Z,7
2019-03-08T15:10:05.908Z,5
2019-03-08T15:15:02.076Z,5
2019-03-08T15:20:01.522Z,5
2019-03-08T15:25:01.903Z,5
2019-03-08T15:30:02.250Z,8
2019-03-08T15:35:01.635Z,5
2019-03-08T15:40:01.754Z,7
2019-03-08T15:45:05.807Z,5
2019-03-08T15:50:04.579Z,7
2019-03-08T15:55:01.390Z,6
2019-03-08T16:00:01.762Z,7
2019-03-08T16:05:03.831Z,3
2019-03-08T16:10:01.736Z,3
2019-03-08T16:15:01.808Z,3
2019-03-08T16:20:02.946Z,4
2019-03-08T16:25:05.771Z,2
2019-03-08T16:30:08.482Z,4
2019-03-08T16:35:01.820Z,3
2019-03-08T16:40:01.586Z,3
2019-03-08T16:45:01.930Z,2
2019-03-08T16:50:02.280Z,5
2019-03-08T16:55:01.621Z,4
2019-03-08T17:00:01.916Z,2
2019-03-08T17:05:01.561Z,3
2019-03-08T17:10:01.372Z,4
2019-03-08T17:15:01.865Z,3
2019-03-08T17:20:02.321Z,4
2019-03-08T17:25:01.684Z,2
2019-03-08T17:30:02.017Z,3
2019-03-08T17:35:01.373Z,3
2019-03-08T17:40:02.144Z,4
2019-03-08T17:45:01.491Z,2
2019-03-08T17:50:01.861Z,2
2019-03-08T17:55:02.265Z,1
2019-03-08T18:00:01.555Z,1
2019-03-08T18:05:02.193Z,2
2019-03-08T18:10:01.969Z,1
2019-03-08T18:15:01.399Z,2
2019-03-08T18:20:01.848Z,2
2019-03-08T18:25:02.186Z,3
2019-03-08T18:30:01.703Z,1
2019-03-08T18:35:02.053Z,2
2019-03-08T18:40:01.842Z,4
2019-03-08T18:45:02.227Z,2
2019-03-08T18:50:01.575Z,3
2019-03-08T18:55:01.935Z,2
2019-03-08T19:00:01.311Z,3
2019-03-08T19:05:01.949Z,3
2019-03-08T19:10:01.782Z,3
2019-03-08T19:15:02.052Z,5
2019-03-08T19:20:01.493Z,3
2019-03-08T19:25:01.822Z,4
2019-03-08T19:30:02.198Z,4
2019-03-08T19:35:01.530Z,4
2019-03-08T19:40:01.378Z,4
2019-03-08T19:45:01.743Z,6
2019-03-08T19:50:02.109Z,5
2019-03-08T19:55:01.451Z,4
2019-03-08T20:00:01.781Z,4
2019-03-08T20:05:01.604Z,4
2019-03-08T20:10:01.428Z,4
2019-03-08T20:15:01.534Z,4
2019-03-08T20:20:01.977Z,3
2019-03-08T20:25:01.305Z,8
2019-03-08T20:30:01.692Z,6
2019-03-08T20:35:02.058Z,6
2019-03-08T20:40:01.873Z,5
2019-03-08T20:45:02.267Z,6
2019-03-08T20:50:01.639Z,5
2019-03-08T20:55:01.989Z,4
2019-03-08T21:00:01.331Z,6
2019-03-08T21:05:02.251Z,5
2019-03-08T21:10:02.019Z,6
2019-03-08T21:15:01.583Z,7
2019-03-08T21:20:02.046Z,8
2019-03-08T21:25:01.402Z,6
2019-03-08T21:30:02.022Z,8
2019-03-08T21:35:01.376Z,6
2019-03-08T21:40:02.222Z,7
2019-03-08T21:45:01.589Z,6
2019-03-08T21:50:01.950Z,7
2019-03-08T21:55:01.363Z,7
2019-03-08T22:00:01.669Z,5
2019-03-08T22:05:01.685Z,7
2019-03-08T22:10:01.455Z,7
2019-03-08T22:15:02.129Z,7
2019-03-08T22:20:01.587Z,6
2019-03-08T22:25:02.211Z,8
2019-03-08T22:30:01.573Z,7
2019-03-08T22:35:01.962Z,6
2019-03-08T22:40:01.736Z,5
2019-03-08T22:45:02.114Z,6
2019-03-08T22:50:01.481Z,7
2019-03-08T22:55:01.835Z,6
2019-03-08T23:00:02.180Z,5
2019-03-08T23:05:02.098Z,6
2019-03-08T23:10:01.860Z,5
2019-03-08T23:15:02.051Z,8
2019-03-08T23:20:01.643Z,6
2019-03-08T23:25:02.044Z,7
2019-03-08T23:30:02.090Z,8
2019-03-08T23:35:01.439Z,8
2019-03-08T23:40:02.286Z,8
2019-03-08T23:45:01.717Z,6
2019-03-08T23:50:02.059Z,8
2019-03-08T23:55:01.414Z,7
